sensor_id;sensor_type;location;lat;lon;timestamp;pressure;altitude;pressure_sealevel;temperature;humidity
34124;BME280;13153;52.316;21.166;2024-01-11T00:00:40;101200.44;;;-0.49;60.43
34124;BME280;13153;52.316;21.166;2024-01-11T00:03:06;101190.34;;;-0.46;60.28
34124;BME280;13153;52.316;21.166;2024-01-11T00:05:32;101191.81;;;-0.59;60.46
34124;BME280;13153;52.316;21.166;2024-01-11T00:07:57;101209.75;;;-0.51;59.96
34124;BME280;13153;52.316;21.166;2024-01-11T00:10:23;101222.97;;;-0.58;60.31
34124;BME280;13153;52.316;21.166;2024-01-11T00:12:49;101218.41;;;-0.50;60.37
34124;BME280;13153;52.316;21.166;2024-01-11T00:15:15;101210.88;;;-0.37;60.04
34124;BME280;13153;52.316;21.166;2024-01-11T00:17:41;101202.59;;;-0.33;59.64
34124;BME280;13153;52.316;21.166;2024-01-11T00:20:07;101192.78;;;-0.27;59.76
34124;BME280;13153;52.316;21.166;2024-01-11T00:22:33;101204.53;;;-0.20;59.21
34124;BME280;13153;52.316;21.166;2024-01-11T00:24:59;101204.69;;;-0.39;59.80
34124;BME280;13153;52.316;21.166;2024-01-11T00:27:24;101207.72;;;-0.65;60.12
34124;BME280;13153;52.316;21.166;2024-01-11T00:29:50;101197.47;;;-0.53;60.34
34124;BME280;13153;52.316;21.166;2024-01-11T00:32:16;101186.47;;;-0.51;60.42
34124;BME280;13153;52.316;21.166;2024-01-11T00:34:42;101179.03;;;-0.58;60.24
34124;BME280;13153;52.316;21.166;2024-01-11T00:37:07;101192.53;;;-0.50;60.43
34124;BME280;13153;52.316;21.166;2024-01-11T00:39:33;101214.78;;;-0.52;60.27
34124;BME280;13153;52.316;21.166;2024-01-11T00:41:59;101223.09;;;-0.67;60.55
34124;BME280;13153;52.316;21.166;2024-01-11T00:44:25;101210.03;;;-0.58;60.77
34124;BME280;13153;52.316;21.166;2024-01-11T00:46:50;101202.28;;;-0.58;60.78
34124;BME280;13153;52.316;21.166;2024-01-11T00:49:16;101192.28;;;-0.53;60.57
34124;BME280;13153;52.316;21.166;2024-01-11T00:51:42;101184.72;;;-0.62;60.71
34124;BME280;13153;52.316;21.166;2024-01-11T00:54:07;101183.75;;;-0.52;60.92
34124;BME280;13153;52.316;21.166;2024-01-11T00:56:33;101180.63;;;-0.38;60.38
34124;BME280;13153;52.316;21.166;2024-01-11T00:58:59;101184.53;;;-0.43;60.30
34124;BME280;13153;52.316;21.166;2024-01-11T01:01:25;101190.34;;;-0.46;60.48
34124;BME280;13153;52.316;21.166;2024-01-11T01:03:50;101197.84;;;-0.39;60.07
34124;BME280;13153;52.316;21.166;2024-01-11T01:06:16;101200.03;;;-0.33;60.10
34124;BME280;13153;52.316;21.166;2024-01-11T01:08:42;101181.16;;;-0.32;60.23
34124;BME280;13153;52.316;21.166;2024-01-11T01:11:08;101190.06;;;-0.28;60.06
34124;BME280;13153;52.316;21.166;2024-01-11T01:13:34;101166.78;;;-0.28;59.99
34124;BME280;13153;52.316;21.166;2024-01-11T01:16:00;101180.63;;;-0.28;60.02
34124;BME280;13153;52.316;21.166;2024-01-11T01:18:25;101164.34;;;-0.37;59.93
34124;BME280;13153;52.316;21.166;2024-01-11T01:20:51;101186.34;;;-0.42;60.16
34124;BME280;13153;52.316;21.166;2024-01-11T01:23:17;101186.84;;;-0.36;60.30
34124;BME280;13153;52.316;21.166;2024-01-11T01:25:43;101172.34;;;-0.24;59.97
34124;BME280;13153;52.316;21.166;2024-01-11T01:28:10;101159.00;;;-0.18;59.65
34124;BME280;13153;52.316;21.166;2024-01-11T01:30:36;101164.31;;;-0.17;59.84
34124;BME280;13153;52.316;21.166;2024-01-11T01:33:02;101164.84;;;-0.21;59.94
34124;BME280;13153;52.316;21.166;2024-01-11T01:35:28;101173.00;;;-0.26;59.76
34124;BME280;13153;52.316;21.166;2024-01-11T01:37:53;101151.03;;;-0.42;60.42
34124;BME280;13153;52.316;21.166;2024-01-11T01:40:19;101162.56;;;-0.48;60.66
34124;BME280;13153;52.316;21.166;2024-01-11T01:42:46;101163.44;;;-0.38;60.63
34124;BME280;13153;52.316;21.166;2024-01-11T01:45:15;101159.03;;;-0.28;60.32
34124;BME280;13153;52.316;21.166;2024-01-11T01:47:43;101144.84;;;-0.44;60.48
34124;BME280;13153;52.316;21.166;2024-01-11T01:50:11;101162.84;;;-0.55;60.40
34124;BME280;13153;52.316;21.166;2024-01-11T01:52:41;101168.25;;;-0.42;60.34
34124;BME280;13153;52.316;21.166;2024-01-11T01:55:10;101188.13;;;-0.41;60.28
34124;BME280;13153;52.316;21.166;2024-01-11T01:57:39;101174.69;;;-0.37;60.00
34124;BME280;13153;52.316;21.166;2024-01-11T02:00:10;101163.97;;;-0.42;60.48
34124;BME280;13153;52.316;21.166;2024-01-11T02:02:39;101162.53;;;-0.38;60.32
34124;BME280;13153;52.316;21.166;2024-01-11T02:05:06;101187.75;;;-0.36;60.45
34124;BME280;13153;52.316;21.166;2024-01-11T02:07:33;101171.59;;;-0.33;60.20
34124;BME280;13153;52.316;21.166;2024-01-11T02:09:59;101165.09;;;-0.28;60.02
34124;BME280;13153;52.316;21.166;2024-01-11T02:12:25;101156.81;;;-0.24;60.03
34124;BME280;13153;52.316;21.166;2024-01-11T02:14:53;101154.25;;;-0.24;60.12
34124;BME280;13153;52.316;21.166;2024-01-11T02:17:19;101143.28;;;-0.42;60.16
34124;BME280;13153;52.316;21.166;2024-01-11T02:19:46;101136.56;;;-0.40;60.72
34124;BME280;13153;52.316;21.166;2024-01-11T02:22:29;101149.88;;;-0.35;60.56
34124;BME280;13153;52.316;21.166;2024-01-11T02:24:56;101160.88;;;-0.38;60.64
34124;BME280;13153;52.316;21.166;2024-01-11T02:27:23;101152.84;;;-0.30;60.32
34124;BME280;13153;52.316;21.166;2024-01-11T02:29:49;101151.13;;;-0.20;60.26
34124;BME280;13153;52.316;21.166;2024-01-11T02:32:15;101130.31;;;-0.21;59.92
34124;BME280;13153;52.316;21.166;2024-01-11T02:34:42;101135.47;;;-0.21;60.02
34124;BME280;13153;52.316;21.166;2024-01-11T02:37:08;101140.69;;;-0.31;60.47
34124;BME280;13153;52.316;21.166;2024-01-11T02:39:34;101133.19;;;-0.39;60.57
34124;BME280;13153;52.316;21.166;2024-01-11T02:42:01;101137.97;;;-0.33;60.37
34124;BME280;13153;52.316;21.166;2024-01-11T02:44:27;101170.03;;;-0.41;60.73
34124;BME280;13153;52.316;21.166;2024-01-11T02:46:53;101158.41;;;-0.36;60.98
34124;BME280;13153;52.316;21.166;2024-01-11T02:49:18;101152.06;;;-0.29;60.65
34124;BME280;13153;52.316;21.166;2024-01-11T02:51:44;101154.75;;;-0.28;60.73
34124;BME280;13153;52.316;21.166;2024-01-11T02:54:10;101149.47;;;-0.29;60.55
34124;BME280;13153;52.316;21.166;2024-01-11T02:56:36;101140.03;;;-0.29;60.59
34124;BME280;13153;52.316;21.166;2024-01-11T02:59:02;101122.94;;;-0.17;60.59
34124;BME280;13153;52.316;21.166;2024-01-11T03:01:28;101127.00;;;-0.41;61.09
34124;BME280;13153;52.316;21.166;2024-01-11T03:03:55;101124.16;;;-0.44;61.08
34124;BME280;13153;52.316;21.166;2024-01-11T03:06:21;101130.75;;;-0.37;61.50
34124;BME280;13153;52.316;21.166;2024-01-11T03:08:50;101127.50;;;-0.35;61.27
34124;BME280;13153;52.316;21.166;2024-01-11T03:11:16;101128.66;;;-0.31;60.91
34124;BME280;13153;52.316;21.166;2024-01-11T03:13:42;101125.06;;;-0.43;61.19
34124;BME280;13153;52.316;21.166;2024-01-11T03:16:08;101131.38;;;-0.29;61.39
34124;BME280;13153;52.316;21.166;2024-01-11T03:18:34;101119.06;;;-0.22;61.01
34124;BME280;13153;52.316;21.166;2024-01-11T03:21:00;101102.22;;;-0.17;60.79
34124;BME280;13153;52.316;21.166;2024-01-11T03:23:25;101089.56;;;-0.14;60.70
34124;BME280;13153;52.316;21.166;2024-01-11T03:25:51;101080.66;;;-0.17;60.75
34124;BME280;13153;52.316;21.166;2024-01-11T03:28:17;101063.94;;;-0.11;60.49
34124;BME280;13153;52.316;21.166;2024-01-11T03:30:43;101046.94;;;-0.29;61.14
34124;BME280;13153;52.316;21.166;2024-01-11T03:33:09;101043.41;;;-0.19;60.85
34124;BME280;13153;52.316;21.166;2024-01-11T03:35:35;101045.47;;;-0.15;60.72
34124;BME280;13153;52.316;21.166;2024-01-11T03:38:00;101037.81;;;-0.14;60.74
34124;BME280;13153;52.316;21.166;2024-01-11T03:40:26;101031.28;;;-0.20;60.90
34124;BME280;13153;52.316;21.166;2024-01-11T03:42:52;101027.06;;;-0.30;60.94
34124;BME280;13153;52.316;21.166;2024-01-11T03:45:18;101033.66;;;-0.34;61.43
34124;BME280;13153;52.316;21.166;2024-01-11T03:47:47;101045.81;;;-0.32;61.29
34124;BME280;13153;52.316;21.166;2024-01-11T03:50:13;101040.59;;;-0.22;60.95
34124;BME280;13153;52.316;21.166;2024-01-11T03:52:39;101030.97;;;-0.13;61.08
34124;BME280;13153;52.316;21.166;2024-01-11T03:55:06;101027.19;;;-0.07;60.58
34124;BME280;13153;52.316;21.166;2024-01-11T03:57:31;101020.22;;;-0.08;60.66
34124;BME280;13153;52.316;21.166;2024-01-11T03:59:57;101022.38;;;-0.24;61.03
34124;BME280;13153;52.316;21.166;2024-01-11T04:02:25;101028.50;;;-0.34;61.43
34124;BME280;13153;52.316;21.166;2024-01-11T04:04:50;101018.34;;;-0.20;61.40
34124;BME280;13153;52.316;21.166;2024-01-11T04:07:16;101025.31;;;-0.19;61.02
34124;BME280;13153;52.316;21.166;2024-01-11T04:09:42;101026.38;;;-0.27;61.58
34124;BME280;13153;52.316;21.166;2024-01-11T04:12:08;101020.94;;;-0.20;61.51
34124;BME280;13153;52.316;21.166;2024-01-11T04:14:38;101026.88;;;-0.21;61.27
34124;BME280;13153;52.316;21.166;2024-01-11T04:17:05;101031.16;;;-0.22;61.23
34124;BME280;13153;52.316;21.166;2024-01-11T04:19:31;101025.16;;;-0.11;61.04
34124;BME280;13153;52.316;21.166;2024-01-11T04:21:57;101025.81;;;-0.13;60.78
34124;BME280;13153;52.316;21.166;2024-01-11T04:24:22;101037.28;;;-0.10;60.69
34124;BME280;13153;52.316;21.166;2024-01-11T04:26:48;101039.88;;;-0.10;60.68
34124;BME280;13153;52.316;21.166;2024-01-11T04:29:14;101036.88;;;-0.04;60.72
34124;BME280;13153;52.316;21.166;2024-01-11T04:31:40;101042.75;;;-0.17;61.08
34124;BME280;13153;52.316;21.166;2024-01-11T04:34:05;101041.31;;;-0.13;60.86
34124;BME280;13153;52.316;21.166;2024-01-11T04:36:31;101042.75;;;-0.17;61.19
34124;BME280;13153;52.316;21.166;2024-01-11T04:38:57;101038.53;;;-0.26;61.80
34124;BME280;13153;52.316;21.166;2024-01-11T04:41:22;101034.09;;;-0.49;62.27
34124;BME280;13153;52.316;21.166;2024-01-11T04:43:48;101038.34;;;-0.40;62.26
34124;BME280;13153;52.316;21.166;2024-01-11T04:46:18;101035.72;;;-0.29;61.99
34124;BME280;13153;52.316;21.166;2024-01-11T04:48:45;101020.16;;;-0.19;61.98
34124;BME280;13153;52.316;21.166;2024-01-11T04:51:13;101025.81;;;-0.13;61.46
34124;BME280;13153;52.316;21.166;2024-01-11T04:53:40;101025.06;;;-0.22;61.93
34124;BME280;13153;52.316;21.166;2024-01-11T04:56:11;101027.25;;;-0.17;61.91
34124;BME280;13153;52.316;21.166;2024-01-11T04:58:40;101019.56;;;-0.05;61.59
34124;BME280;13153;52.316;21.166;2024-01-11T05:01:11;101001.09;;;-0.10;61.75
34124;BME280;13153;52.316;21.166;2024-01-11T05:03:37;100995.44;;;-0.16;61.69
34124;BME280;13153;52.316;21.166;2024-01-11T05:06:03;100997.84;;;-0.07;61.55
34124;BME280;13153;52.316;21.166;2024-01-11T05:08:29;100988.63;;;-0.25;61.88
34124;BME280;13153;52.316;21.166;2024-01-11T05:10:55;100981.72;;;-0.15;62.01
34124;BME280;13153;52.316;21.166;2024-01-11T05:13:21;100978.13;;;-0.17;61.58
34124;BME280;13153;52.316;21.166;2024-01-11T05:15:47;100965.84;;;-0.19;61.60
34124;BME280;13153;52.316;21.166;2024-01-11T05:18:13;100968.00;;;-0.14;61.59
34124;BME280;13153;52.316;21.166;2024-01-11T05:20:39;100971.72;;;-0.32;61.57
34124;BME280;13153;52.316;21.166;2024-01-11T05:23:05;100974.44;;;-0.30;61.93
34124;BME280;13153;52.316;21.166;2024-01-11T05:25:32;100965.19;;;-0.17;61.43
34124;BME280;13153;52.316;21.166;2024-01-11T05:28:02;100962.94;;;-0.12;61.11
34124;BME280;13153;52.316;21.166;2024-01-11T05:30:30;100956.69;;;-0.04;61.11
34124;BME280;13153;52.316;21.166;2024-01-11T05:32:55;100950.97;;;0.00;60.84
34124;BME280;13153;52.316;21.166;2024-01-11T05:35:22;100946.66;;;0.00;60.59
34124;BME280;13153;52.316;21.166;2024-01-11T05:37:50;100951.41;;;-0.06;60.85
34124;BME280;13153;52.316;21.166;2024-01-11T05:40:16;100955.25;;;-0.22;60.95
34124;BME280;13153;52.316;21.166;2024-01-11T05:42:42;100948.47;;;-0.32;61.42
34124;BME280;13153;52.316;21.166;2024-01-11T05:45:08;100949.25;;;-0.33;61.52
34124;BME280;13153;52.316;21.166;2024-01-11T05:47:34;100938.06;;;-0.22;61.34
34124;BME280;13153;52.316;21.166;2024-01-11T05:50:00;100936.25;;;-0.23;61.14
34124;BME280;13153;52.316;21.166;2024-01-11T05:52:25;100927.97;;;-0.19;61.26
34124;BME280;13153;52.316;21.166;2024-01-11T05:54:51;100917.19;;;-0.13;60.84
34124;BME280;13153;52.316;21.166;2024-01-11T05:57:17;100906.06;;;-0.34;61.35
34124;BME280;13153;52.316;21.166;2024-01-11T05:59:46;100915.03;;;-0.19;61.05
34124;BME280;13153;52.316;21.166;2024-01-11T06:02:12;100912.44;;;-0.19;61.16
34124;BME280;13153;52.316;21.166;2024-01-11T06:04:39;100916.16;;;-0.15;60.96
34124;BME280;13153;52.316;21.166;2024-01-11T06:07:05;100909.56;;;-0.12;61.16
34124;BME280;13153;52.316;21.166;2024-01-11T06:09:31;100916.91;;;-0.28;61.03
34124;BME280;13153;52.316;21.166;2024-01-11T06:11:57;100900.09;;;-0.11;60.63
34124;BME280;13153;52.316;21.166;2024-01-11T06:14:22;100895.59;;;-0.14;61.02
34124;BME280;13153;52.316;21.166;2024-01-11T06:16:48;100903.13;;;-0.17;61.11
34124;BME280;13153;52.316;21.166;2024-01-11T06:19:14;100909.63;;;-0.44;61.82
34124;BME280;13153;52.316;21.166;2024-01-11T06:21:39;100921.81;;;-0.31;62.21
34124;BME280;13153;52.316;21.166;2024-01-11T06:24:05;100915.03;;;-0.19;61.87
34124;BME280;13153;52.316;21.166;2024-01-11T06:26:31;100909.31;;;-0.15;61.60
34124;BME280;13153;52.316;21.166;2024-01-11T06:28:57;100911.44;;;-0.21;61.77
34124;BME280;13153;52.316;21.166;2024-01-11T06:31:22;100901.19;;;-0.19;61.79
34124;BME280;13153;52.316;21.166;2024-01-11T06:33:48;100903.78;;;-0.19;61.95
34124;BME280;13153;52.316;21.166;2024-01-11T06:36:14;100902.88;;;-0.20;62.30
34124;BME280;13153;52.316;21.166;2024-01-11T06:38:40;100894.69;;;-0.14;62.11
34124;BME280;13153;52.316;21.166;2024-01-11T06:41:06;100897.53;;;-0.11;61.98
34124;BME280;13153;52.316;21.166;2024-01-11T06:43:32;100891.56;;;-0.10;62.14
34124;BME280;13153;52.316;21.166;2024-01-11T06:46:05;100898.53;;;0.03;62.09
34124;BME280;13153;52.316;21.166;2024-01-11T06:48:32;100891.56;;;0.02;61.89
34124;BME280;13153;52.316;21.166;2024-01-11T06:50:58;100888.78;;;-0.02;62.00
34124;BME280;13153;52.316;21.166;2024-01-11T06:53:23;100896.66;;;0.00;62.07
34124;BME280;13153;52.316;21.166;2024-01-11T06:55:49;100898.88;;;-0.05;62.40
34124;BME280;13153;52.316;21.166;2024-01-11T06:58:20;100893.06;;;-0.02;62.60
34124;BME280;13153;52.316;21.166;2024-01-11T07:00:48;100881.03;;;0.10;62.28
34124;BME280;13153;52.316;21.166;2024-01-11T07:03:15;100888.19;;;0.03;62.29
34124;BME280;13153;52.316;21.166;2024-01-11T07:05:41;100892.69;;;-0.07;63.18
34124;BME280;13153;52.316;21.166;2024-01-11T07:08:07;100885.84;;;0.06;63.07
34124;BME280;13153;52.316;21.166;2024-01-11T07:13:16;100878.97;;;0.06;62.68
34124;BME280;13153;52.316;21.166;2024-01-11T07:15:43;100872.47;;;0.11;62.55
34124;BME280;13153;52.316;21.166;2024-01-11T07:18:09;100870.31;;;0.06;62.80
34124;BME280;13153;52.316;21.166;2024-01-11T07:20:35;100872.47;;;-0.01;63.41
34124;BME280;13153;52.316;21.166;2024-01-11T07:23:00;100888.66;;;0.09;63.11
34124;BME280;13153;52.316;21.166;2024-01-11T07:25:26;100889.13;;;0.15;62.83
34124;BME280;13153;52.316;21.166;2024-01-11T07:27:52;100874.75;;;0.30;62.50
34124;BME280;13153;52.316;21.166;2024-01-11T07:30:18;100886.34;;;0.35;62.58
34124;BME280;13153;52.316;21.166;2024-01-11T07:32:44;100874.88;;;0.43;62.26
34124;BME280;13153;52.316;21.166;2024-01-11T07:35:10;100872.72;;;0.26;62.48
34124;BME280;13153;52.316;21.166;2024-01-11T07:37:38;100863.50;;;0.29;63.08
34124;BME280;13153;52.316;21.166;2024-01-11T07:40:06;100876.69;;;0.44;62.67
34124;BME280;13153;52.316;21.166;2024-01-11T07:42:37;100871.75;;;0.47;62.57
34124;BME280;13153;52.316;21.166;2024-01-11T07:45:08;100877.00;;;0.25;63.16
34124;BME280;13153;52.316;21.166;2024-01-11T07:47:36;100865.88;;;0.38;63.38
34124;BME280;13153;52.316;21.166;2024-01-11T07:50:06;100876.88;;;0.24;63.38
34124;BME280;13153;52.316;21.166;2024-01-11T07:52:36;100893.00;;;0.31;63.49
34124;BME280;13153;52.316;21.166;2024-01-11T07:55:03;100877.38;;;0.42;63.21
34124;BME280;13153;52.316;21.166;2024-01-11T07:57:37;100877.81;;;0.48;63.36
34124;BME280;13153;52.316;21.166;2024-01-11T08:00:06;100891.34;;;0.55;63.01
34124;BME280;13153;52.316;21.166;2024-01-11T08:02:35;100897.72;;;0.60;62.82
34124;BME280;13153;52.316;21.166;2024-01-11T08:05:01;100891.44;;;0.57;63.23
34124;BME280;13153;52.316;21.166;2024-01-11T08:07:28;100893.91;;;0.55;63.40
34124;BME280;13153;52.316;21.166;2024-01-11T08:09:55;100881.09;;;0.57;63.50
34124;BME280;13153;52.316;21.166;2024-01-11T08:12:21;100886.16;;;0.55;63.37
34124;BME280;13153;52.316;21.166;2024-01-11T08:14:47;100876.22;;;0.61;63.48
34124;BME280;13153;52.316;21.166;2024-01-11T08:17:14;100880.84;;;0.65;63.47
34124;BME280;13153;52.316;21.166;2024-01-11T08:19:40;100866.44;;;0.69;63.62
34124;BME280;13153;52.316;21.166;2024-01-11T08:22:09;100876.56;;;0.78;63.14
34124;BME280;13153;52.316;21.166;2024-01-11T08:24:35;100871.94;;;0.62;63.70
34124;BME280;13153;52.316;21.166;2024-01-11T08:27:01;100883.78;;;0.47;64.92
34124;BME280;13153;52.316;21.166;2024-01-11T08:29:27;100875.31;;;0.61;64.46
34124;BME280;13153;52.316;21.166;2024-01-11T08:31:53;100896.16;;;0.62;64.81
34124;BME280;13153;52.316;21.166;2024-01-11T08:34:20;100879.94;;;0.65;64.56
34124;BME280;13153;52.316;21.166;2024-01-11T08:36:46;100879.72;;;0.74;64.56
34124;BME280;13153;52.316;21.166;2024-01-11T08:39:13;100877.34;;;0.77;64.37
34124;BME280;13153;52.316;21.166;2024-01-11T08:41:40;100884.44;;;0.68;65.02
34124;BME280;13153;52.316;21.166;2024-01-11T08:44:06;100878.34;;;0.79;65.02
34124;BME280;13153;52.316;21.166;2024-01-11T08:46:32;100877.34;;;0.77;64.77
34124;BME280;13153;52.316;21.166;2024-01-11T08:49:00;100869.34;;;0.74;64.86
34124;BME280;13153;52.316;21.166;2024-01-11T08:51:29;100881.06;;;0.80;64.91
34124;BME280;13153;52.316;21.166;2024-01-11T08:53:55;100882.63;;;0.66;65.40
34124;BME280;13153;52.316;21.166;2024-01-11T08:56:21;100869.81;;;0.80;65.38
34124;BME280;13153;52.316;21.166;2024-01-11T08:58:47;100857.63;;;0.79;65.15
34124;BME280;13153;52.316;21.166;2024-01-11T09:01:14;100864.63;;;0.80;65.22
34124;BME280;13153;52.316;21.166;2024-01-11T09:03:40;100862.72;;;0.77;65.61
34124;BME280;13153;52.316;21.166;2024-01-11T09:06:06;100856.06;;;0.92;65.69
34124;BME280;13153;52.316;21.166;2024-01-11T09:08:33;100853.09;;;0.99;65.62
34124;BME280;13153;52.316;21.166;2024-01-11T09:10:59;100853.66;;;1.07;65.17
34124;BME280;13153;52.316;21.166;2024-01-11T09:13:28;100850.09;;;1.18;64.73
34124;BME280;13153;52.316;21.166;2024-01-11T09:15:54;100844.25;;;1.21;64.90
34124;BME280;13153;52.316;21.166;2024-01-11T09:18:21;100849.06;;;1.28;64.80
34124;BME280;13153;52.316;21.166;2024-01-11T09:20:47;100847.34;;;1.15;65.06
34124;BME280;13153;52.316;21.166;2024-01-11T09:23:14;100843.53;;;1.35;64.88
34124;BME280;13153;52.316;21.166;2024-01-11T09:25:41;100835.81;;;1.48;64.30
34124;BME280;13153;52.316;21.166;2024-01-11T09:28:06;100839.94;;;1.58;64.44
34124;BME280;13153;52.316;21.166;2024-01-11T09:30:33;100825.22;;;1.45;64.53
34124;BME280;13153;52.316;21.166;2024-01-11T09:32:59;100833.38;;;1.38;64.37
34124;BME280;13153;52.316;21.166;2024-01-11T09:35:25;100825.81;;;1.41;65.19
34124;BME280;13153;52.316;21.166;2024-01-11T09:37:51;100826.91;;;1.20;65.36
34124;BME280;13153;52.316;21.166;2024-01-11T09:40:18;100822.09;;;1.38;65.65
34124;BME280;13153;52.316;21.166;2024-01-11T09:42:45;100810.16;;;1.40;65.06
34124;BME280;13153;52.316;21.166;2024-01-11T09:45:15;100814.22;;;1.36;64.91
34124;BME280;13153;52.316;21.166;2024-01-11T09:47:43;100805.59;;;1.49;65.10
34124;BME280;13153;52.316;21.166;2024-01-11T09:50:13;100802.75;;;1.57;65.12
34124;BME280;13153;52.316;21.166;2024-01-11T09:52:50;100791.53;;;1.70;64.74
34124;BME280;13153;52.316;21.166;2024-01-11T09:55:17;100787.63;;;1.77;64.10
34124;BME280;13153;52.316;21.166;2024-01-11T09:57:48;100794.59;;;1.64;64.51
34124;BME280;13153;52.316;21.166;2024-01-11T10:00:22;100781.63;;;1.64;65.12
34124;BME280;13153;52.316;21.166;2024-01-11T10:02:49;100789.47;;;1.53;66.12
34124;BME280;13153;52.316;21.166;2024-01-11T10:05:17;100792.97;;;1.53;66.34
34124;BME280;13153;52.316;21.166;2024-01-11T10:07:44;100782.53;;;1.65;66.07
34124;BME280;13153;52.316;21.166;2024-01-11T10:10:11;100775.16;;;1.71;65.69
34124;BME280;13153;52.316;21.166;2024-01-11T10:12:40;100781.03;;;1.69;66.06
34124;BME280;13153;52.316;21.166;2024-01-11T10:15:08;100777.13;;;1.62;66.25
34124;BME280;13153;52.316;21.166;2024-01-11T10:17:39;100779.13;;;1.66;66.82
34124;BME280;13153;52.316;21.166;2024-01-11T10:20:06;100778.66;;;1.72;66.97
34124;BME280;13153;52.316;21.166;2024-01-11T10:22:36;100786.72;;;1.76;67.45
34124;BME280;13153;52.316;21.166;2024-01-11T10:25:13;100780.63;;;1.76;67.36
34124;BME280;13153;52.316;21.166;2024-01-11T10:27:46;100793.31;;;1.84;67.30
34124;BME280;13153;52.316;21.166;2024-01-11T10:30:13;100781.19;;;1.96;67.38
34124;BME280;13153;52.316;21.166;2024-01-11T10:32:45;100789.97;;;2.12;66.44
34124;BME280;13153;52.316;21.166;2024-01-11T10:35:11;100774.00;;;2.06;66.60
34124;BME280;13153;52.316;21.166;2024-01-11T10:37:37;100764.91;;;1.99;66.65
34124;BME280;13153;52.316;21.166;2024-01-11T10:40:08;100765.72;;;2.11;66.99
34124;BME280;13153;52.316;21.166;2024-01-11T10:42:51;100764.19;;;1.88;67.78
34124;BME280;13153;52.316;21.166;2024-01-11T10:45:20;100766.00;;;2.03;67.29
34124;BME280;13153;52.316;21.166;2024-01-11T10:48:01;100767.59;;;2.01;67.60
34124;BME280;13153;52.316;21.166;2024-01-11T10:50:34;100776.59;;;2.06;67.23
34124;BME280;13153;52.316;21.166;2024-01-11T10:55:50;100763.03;;;2.10;66.88
34124;BME280;13153;52.316;21.166;2024-01-11T10:58:18;100759.63;;;2.11;67.56
34124;BME280;13153;52.316;21.166;2024-01-11T11:00:46;100750.16;;;2.24;67.49
34124;BME280;13153;52.316;21.166;2024-01-11T11:03:14;100732.19;;;2.27;66.73
34124;BME280;13153;52.316;21.166;2024-01-11T11:05:42;100732.50;;;2.19;67.12
34124;BME280;13153;52.316;21.166;2024-01-11T11:08:10;100727.78;;;2.13;67.72
34124;BME280;13153;52.316;21.166;2024-01-11T11:10:40;100721.31;;;2.07;67.93
34124;BME280;13153;52.316;21.166;2024-01-11T11:13:09;100717.00;;;2.07;67.94
34124;BME280;13153;52.316;21.166;2024-01-11T11:15:35;100711.81;;;2.20;68.07
34124;BME280;13153;52.316;21.166;2024-01-11T11:18:03;100709.28;;;2.35;67.81
34124;BME280;13153;52.316;21.166;2024-01-11T11:20:32;100706.47;;;2.45;67.65
34124;BME280;13153;52.316;21.166;2024-01-11T11:23:08;100706.78;;;2.37;67.68
34124;BME280;13153;52.316;21.166;2024-01-11T11:25:40;100710.00;;;2.32;68.26
34124;BME280;13153;52.316;21.166;2024-01-11T11:28:06;100711.88;;;2.48;67.85
34124;BME280;13153;52.316;21.166;2024-01-11T11:30:43;100709.88;;;2.44;67.81
34124;BME280;13153;52.316;21.166;2024-01-11T11:33:21;100717.19;;;2.37;68.23
34124;BME280;13153;52.316;21.166;2024-01-11T11:35:52;100713.38;;;2.45;67.89
34124;BME280;13153;52.316;21.166;2024-01-11T11:38:22;100710.47;;;2.40;68.26
34124;BME280;13153;52.316;21.166;2024-01-11T11:40:51;100711.88;;;2.35;67.93
34124;BME280;13153;52.316;21.166;2024-01-11T11:43:18;100704.16;;;2.50;68.27
34124;BME280;13153;52.316;21.166;2024-01-11T11:45:47;100703.59;;;2.41;68.10
34124;BME280;13153;52.316;21.166;2024-01-11T11:51:11;100701.97;;;2.56;67.57
34124;BME280;13153;52.316;21.166;2024-01-11T11:53:39;100701.47;;;2.48;67.54
34124;BME280;13153;52.316;21.166;2024-01-11T11:56:06;100702.00;;;2.43;68.56
34124;BME280;13153;52.316;21.166;2024-01-11T11:58:34;100708.56;;;2.51;68.00
34124;BME280;13153;52.316;21.166;2024-01-11T12:01:02;100698.47;;;2.55;68.23
34124;BME280;13153;52.316;21.166;2024-01-11T12:03:36;100697.97;;;2.48;68.13
34124;BME280;13153;52.316;21.166;2024-01-11T12:06:07;100709.06;;;2.58;67.70
34124;BME280;13153;52.316;21.166;2024-01-11T12:08:34;100698.84;;;2.61;67.52
34124;BME280;13153;52.316;21.166;2024-01-11T12:11:01;100706.88;;;2.51;68.21
34124;BME280;13153;52.316;21.166;2024-01-11T12:13:28;100692.53;;;2.71;67.31
34124;BME280;13153;52.316;21.166;2024-01-11T12:15:54;100693.94;;;2.66;67.56
34124;BME280;13153;52.316;21.166;2024-01-11T12:18:21;100686.47;;;2.57;67.42
34124;BME280;13153;52.316;21.166;2024-01-11T12:20:47;100684.84;;;2.73;67.82
34124;BME280;13153;52.316;21.166;2024-01-11T12:23:13;100684.09;;;2.88;67.95
34124;BME280;13153;52.316;21.166;2024-01-11T12:25:42;100676.03;;;2.84;67.49
34124;BME280;13153;52.316;21.166;2024-01-11T12:28:08;100674.56;;;2.74;67.92
34124;BME280;13153;52.316;21.166;2024-01-11T12:30:34;100664.03;;;2.86;67.29
34124;BME280;13153;52.316;21.166;2024-01-11T12:33:00;100663.72;;;2.81;67.06
34124;BME280;13153;52.316;21.166;2024-01-11T12:35:27;100672.22;;;2.79;67.62
34124;BME280;13153;52.316;21.166;2024-01-11T12:38:02;100671.25;;;2.77;67.88
34124;BME280;13153;52.316;21.166;2024-01-11T12:40:33;100684.94;;;2.74;68.13
34124;BME280;13153;52.316;21.166;2024-01-11T12:43:11;100685.66;;;2.72;67.65
34124;BME280;13153;52.316;21.166;2024-01-11T12:45:37;100680.84;;;2.78;68.14
34124;BME280;13153;52.316;21.166;2024-01-11T12:48:07;100672.63;;;2.85;67.99
34124;BME280;13153;52.316;21.166;2024-01-11T12:50:34;100674.13;;;2.81;67.64
34124;BME280;13153;52.316;21.166;2024-01-11T12:53:14;100664.72;;;2.83;67.34